createdAt,value
2019-02-02T05:30:42.885Z,28.20
2019-02-02T05:33:11.628Z,28.87
2019-02-02T05:35:40.072Z,30.93
2019-02-02T05:38:08.963Z,31.13
2019-02-02T05:40:37.568Z,30.53
2019-02-02T05:43:06.148Z,30.37
2019-02-02T05:45:34.736Z,32.20
2019-02-02T05:48:03.162Z,29.07
2019-02-02T05:50:31.945Z,30.50
2019-02-02T05:53:00.583Z,28.37
2019-02-02T05:55:29.030Z,31.83
2019-02-02T05:57:57.462Z,30.23
2019-02-02T06:00:30.088Z,30.57
2019-02-02T06:02:58.602Z,30.77
2019-02-02T06:05:27.066Z,28.70
2019-02-02T06:07:55.786Z,28.90
2019-02-02T06:10:24.238Z,31.20
2019-02-02T06:12:53.119Z,28.53
2019-02-02T06:15:21.760Z,27.63
2019-02-02T06:17:50.269Z,28.03
2019-02-02T06:20:18.703Z,27.50
2019-02-02T06:22:47.246Z,29.03
2019-02-02T06:25:16.424Z,28.03
2019-02-02T06:27:44.942Z,31.83
2019-02-02T06:30:19.175Z,30.77
2019-02-02T06:32:47.623Z,31.47
2019-02-02T06:35:17.390Z,29.27
2019-02-02T06:37:46.125Z,28.80
2019-02-02T06:40:15.902Z,29.50
2019-02-02T06:42:44.520Z,28.60
2019-02-02T06:45:27.738Z,28.40
2019-02-02T06:47:56.410Z,27.67
2019-02-02T06:50:24.915Z,26.07
2019-02-02T06:52:53.718Z,28.17
2019-02-02T06:55:22.227Z,26.90
2019-02-02T06:57:50.660Z,26.90
2019-02-02T07:00:22.492Z,27.07
2019-02-02T07:02:50.926Z,26.47
2019-02-02T07:05:19.434Z,27.67
2019-02-02T07:07:47.902Z,26.33
2019-02-02T07:10:21.801Z,27.90
2019-02-02T07:12:50.407Z,27.20
2019-02-02T07:15:27.961Z,27.77
2019-02-02T07:17:56.827Z,27.23
2019-02-02T07:20:25.620Z,25.43
2019-02-02T07:22:54.121Z,27.43
2019-02-02T07:25:22.549Z,26.90
2019-02-02T07:27:51.291Z,26.90
2019-02-02T07:30:28.813Z,27.70
2019-02-02T07:32:52.542Z,26.33
2019-02-02T07:35:21.612Z,27.63
2019-02-02T07:37:50.147Z,25.90
2019-02-02T07:40:20.223Z,25.80
2019-02-02T07:42:49.030Z,26.30
2019-02-02T07:45:20.006Z,24.77
2019-02-02T07:47:48.443Z,26.67
2019-02-02T07:50:17.925Z,26.73
2019-02-02T07:52:46.474Z,26.10
2019-02-02T07:55:20.295Z,26.13
2019-02-02T07:57:48.801Z,26.17
2019-02-02T08:00:39.666Z,27.17
2019-02-02T08:02:59.736Z,26.00
2019-02-02T08:05:28.194Z,27.07
2019-02-02T08:07:56.668Z,27.57
2019-02-02T08:10:25.180Z,27.03
2019-02-02T08:12:53.679Z,27.77
2019-02-02T08:15:27.866Z,27.23
2019-02-02T08:17:56.295Z,25.90
2019-02-02T08:20:25.468Z,25.67
2019-02-02T08:22:56.473Z,26.80
2019-02-02T08:25:24.367Z,25.10
2019-02-02T08:27:52.871Z,26.60
2019-02-02T08:30:29.863Z,25.80
2019-02-02T08:32:58.439Z,27.67
2019-02-02T08:35:26.874Z,26.73
2019-02-02T08:37:56.546Z,27.17
2019-02-02T08:44:06.433Z,25.03
2019-02-02T08:46:34.873Z,24.63
2019-02-02T08:49:03.491Z,26.30
2019-02-02T08:51:31.971Z,25.87
2019-02-02T08:54:03.221Z,25.50
2019-02-02T08:56:30.579Z,24.80
2019-02-02T08:58:59.295Z,26.53
2019-02-02T09:01:27.734Z,25.47
2019-02-02T09:03:56.167Z,25.43
2019-02-02T09:06:24.810Z,26.77
2019-02-02T09:08:53.366Z,26.37
2019-02-02T09:11:21.802Z,26.57
2019-02-02T09:13:50.346Z,27.57
2019-02-02T09:16:18.846Z,27.73
2019-02-02T09:18:47.282Z,27.13
2019-02-02T09:21:15.867Z,29.40
2019-02-02T09:23:44.301Z,27.23
2019-02-02T09:26:12.738Z,27.43
2019-02-02T09:28:41.200Z,28.27
2019-02-02T09:31:15.889Z,30.07
2019-02-02T09:33:39.796Z,29.20
2019-02-02T09:36:08.274Z,29.17
2019-02-02T09:38:37.050Z,29.13
2019-02-02T09:41:05.842Z,29.60
2019-02-02T09:43:34.323Z,29.57
2019-02-02T09:46:04.765Z,29.30
2019-02-02T09:48:33.343Z,30.93
2019-02-02T09:51:01.831Z,27.77
2019-02-02T09:53:30.259Z,27.23
2019-02-02T09:55:58.699Z,28.63
2019-02-02T09:58:27.246Z,28.83
2019-02-02T10:00:55.695Z,29.70
2019-02-02T10:03:24.142Z,27.47
2019-02-02T10:05:52.610Z,28.40
2019-02-02T10:08:21.046Z,29.30
2019-02-02T10:10:49.814Z,31.13
2019-02-02T10:13:18.287Z,31.13
2019-02-02T10:15:46.731Z,32.13
2019-02-02T10:18:15.163Z,30.87
2019-02-02T10:20:43.627Z,32.13
2019-02-02T10:23:12.455Z,31.00
2019-02-02T10:25:41.003Z,31.60
2019-02-02T10:31:42.616Z,31.80
2019-02-02T10:37:28.053Z,30.83
2019-02-02T10:43:01.757Z,31.07
2019-02-02T10:45:30.855Z,29.27
2019-02-02T10:51:40.801Z,29.63
2019-02-02T10:57:50.514Z,30.13
2019-02-02T11:00:24.948Z,30.77
2019-02-02T11:02:53.451Z,31.97
2019-02-02T11:05:22.149Z,31.87
2019-02-02T11:07:50.618Z,30.03
2019-02-02T11:13:48.412Z,30.17
2019-02-02T11:19:45.485Z,30.77
2019-02-02T11:25:42.556Z,29.43
2019-02-02T11:31:39.895Z,29.90
2019-02-02T11:34:08.687Z,30.57
2019-02-02T11:40:08.903Z,31.00
2019-02-02T11:42:37.334Z,30.80
2019-02-02T11:48:34.532Z,31.47
2019-02-02T11:51:02.989Z,30.73
2019-02-02T11:53:31.434Z,33.40
2019-02-02T11:56:00.197Z,33.13
2019-02-02T12:01:57.138Z,33.10
2019-02-02T12:07:54.203Z,31.87
2019-02-02T12:10:31.714Z,30.80
2019-02-02T12:13:00.390Z,31.60
2019-02-02T12:15:28.985Z,30.40
2019-02-02T12:17:57.881Z,31.60
2019-02-02T12:23:55.280Z,32.07
2019-02-02T12:30:25.864Z,31.50
2019-02-02T12:36:35.260Z,29.80
2019-02-02T12:39:05.302Z,31.40
2019-02-02T12:41:33.763Z,31.20
2019-02-02T12:44:02.226Z,31.73
2019-02-02T12:50:13.795Z,31.67
2019-02-02T12:56:23.330Z,29.07
2019-02-02T13:02:38.141Z,30.17
2019-02-02T13:05:04.184Z,30.53
2019-02-02T13:07:32.969Z,29.97
2019-02-02T13:13:30.153Z,28.20
2019-02-02T13:15:58.901Z,28.70
2019-02-02T13:21:56.721Z,27.30
2019-02-02T13:27:53.596Z,28.43
2019-02-02T13:33:39.363Z,27.87
2019-02-02T13:39:36.423Z,27.07
2019-02-02T13:45:11.342Z,25.77
2019-02-02T13:51:08.884Z,26.23
2019-02-02T13:57:05.736Z,27.17
2019-02-02T13:59:34.198Z,27.03
2019-02-02T14:02:02.636Z,28.90
2019-02-02T14:04:31.087Z,28.43
2019-02-02T14:06:59.921Z,28.67
2019-02-02T14:09:28.363Z,28.80
2019-02-02T14:11:56.803Z,29.73
2019-02-02T14:17:54.348Z,30.10
2019-02-02T14:20:23.073Z,28.77
2019-02-02T14:22:51.994Z,28.77
2019-02-02T14:25:20.694Z,27.83
2019-02-02T14:27:49.321Z,28.00
2019-02-02T14:30:25.890Z,28.40
2019-02-02T14:36:23.084Z,28.67
2019-02-02T14:38:51.936Z,26.80
2019-02-02T14:41:20.379Z,29.10
2019-02-02T14:43:48.815Z,28.63
2019-02-02T14:49:45.736Z,26.07
2019-02-02T14:52:14.235Z,27.23
2019-02-02T14:58:11.213Z,27.20
2019-02-02T15:00:39.655Z,26.37
2019-02-02T15:03:08.259Z,26.53
2019-02-02T15:05:43.109Z,28.53
2019-02-02T15:08:07.300Z,27.07
2019-02-02T15:10:35.790Z,27.97
2019-02-02T15:13:04.303Z,27.80
2019-02-02T15:15:32.743Z,28.73
2019-02-02T15:21:29.567Z,28.90
2019-02-02T15:27:26.836Z,26.50
2019-02-02T15:29:55.304Z,26.30
2019-02-02T15:32:23.754Z,26.03
2019-02-02T15:34:52.172Z,26.60
2019-02-02T15:37:20.900Z,24.77
2019-02-02T15:39:49.402Z,24.47
2019-02-02T15:42:17.946Z,25.33
2019-02-02T15:44:46.415Z,25.23
2019-02-02T15:47:14.850Z,25.50
2019-02-02T15:49:43.612Z,24.30
2019-02-02T15:52:12.452Z,24.20
2019-02-02T15:54:41.196Z,24.97
2019-02-02T15:57:09.635Z,24.83
2019-02-02T15:59:38.856Z,24.97
2019-02-02T16:05:48.605Z,24.70
2019-02-02T16:08:17.196Z,24.10
2019-02-02T16:10:45.767Z,24.57
2019-02-02T16:13:14.231Z,24.73
2019-02-02T16:15:42.903Z,24.90
2019-02-02T16:18:11.406Z,25.57
2019-02-02T16:20:42.491Z,25.73
2019-02-02T16:23:11.256Z,26.93
2019-02-02T16:25:39.772Z,26.90
2019-02-02T16:28:08.489Z,26.57
2019-02-02T16:30:37.083Z,26.03
2019-02-02T16:33:05.966Z,26.37
2019-02-02T16:39:05.114Z,25.83
2019-02-02T16:45:02.275Z,26.97
2019-02-02T16:47:30.719Z,27.00
2019-02-02T16:53:27.954Z,26.37
2019-02-02T16:55:56.547Z,26.90
2019-02-02T16:58:24.990Z,27.40
2019-02-02T17:00:53.437Z,29.03
2019-02-02T17:03:21.899Z,29.10
2019-02-02T17:09:31.787Z,25.70
2019-02-02T17:12:00.776Z,26.00
2019-02-02T17:17:57.703Z,27.10
2019-02-02T17:23:54.403Z,25.17
2019-02-02T17:26:22.871Z,24.93
2019-02-02T17:28:51.389Z,25.67
2019-02-02T17:34:48.606Z,24.17
2019-02-02T17:40:46.090Z,25.77
2019-02-02T17:43:14.558Z,25.57
2019-02-02T17:45:42.994Z,26.30
2019-02-02T17:51:15.768Z,25.33
2019-02-02T17:53:44.567Z,24.37
2019-02-02T17:56:13.011Z,23.57
2019-02-02T17:58:41.520Z,24.83
2019-02-02T18:01:09.974Z,26.37
2019-02-02T18:07:19.426Z,24.00
2019-02-02T18:09:47.873Z,24.00
2019-02-02T18:12:16.621Z,24.17
2019-02-02T18:18:14.254Z,24.63
2019-02-02T18:24:11.630Z,24.30
2019-02-02T18:26:40.094Z,24.97
2019-02-02T18:32:49.668Z,27.30
2019-02-02T18:35:18.541Z,28.27
2019-02-02T18:37:46.980Z,28.17
2019-02-02T18:40:20.578Z,28.13
2019-02-02T18:42:53.191Z,29.43
2019-02-02T18:45:24.385Z,26.07
2019-02-02T18:51:09.929Z,25.47
2019-02-02T18:53:38.434Z,27.23
2019-02-02T18:56:06.942Z,24.87
2019-02-02T19:02:04.578Z,26.10
2019-02-02T19:04:33.076Z,27.30
2019-02-02T19:07:01.856Z,27.57
2019-02-02T19:12:58.574Z,28.40
2019-02-02T19:18:55.262Z,27.77
2019-02-02T19:21:23.771Z,26.90
2019-02-02T19:27:21.584Z,28.03
2019-02-02T19:29:50.123Z,28.00
2019-02-02T19:32:19.630Z,27.90
2019-02-02T19:34:48.089Z,28.20
2019-02-02T19:37:16.554Z,27.97
2019-02-02T19:39:45.347Z,27.80
2019-02-02T19:42:13.906Z,27.70
2019-02-02T19:44:42.660Z,26.13
2019-02-02T19:47:16.285Z,26.23
2019-02-02T19:52:46.179Z,26.23
2019-02-02T19:55:15.193Z,28.13
2019-02-02T19:57:43.794Z,27.57
2019-02-02T20:00:15.942Z,26.87
2019-02-02T20:02:44.477Z,28.50
2019-02-02T20:05:13.559Z,28.47
2019-02-02T20:07:42.004Z,28.10
2019-02-02T20:10:15.715Z,29.40
2019-02-02T20:12:44.214Z,33.23
2019-02-02T20:15:15.160Z,35.53
2019-02-02T20:21:12.719Z,23.03
2019-02-02T20:27:10.075Z,24.43
2019-02-02T20:29:38.570Z,25.63
